Weather reports worldwide

Advertisment
Monte Settepani, Italy (16111): temperature & dewpoint: 07.07.2020 06:00:00 - 13.07.2020 06:00:00 (CEST)Monte Settepani, Italy (16111): wind speed: 07.07.2020 06:00:00 - 13.07.2020 06:00:00 (CEST)Monte Settepani, Italy (16111): wind direction: 07.07.2020 06:00:00 - 13.07.2020 06:00:00 (CEST)Monte Settepani, Italy (16111): precipitation: 07.07.2020 06:00:00 - 13.07.2020 06:00:00 (CEST)
Date & Time tt [°C] td [°C] ff [km/h] ff [kn] dd rr [mm]
13.07.2020 06:00:00 12,7 12,7 29 16 NNW -
13.07.2020 05:00:00 12,6 12,6 29 16 N -
13.07.2020 04:00:00 13,1 13,0 29 16 N -
13.07.2020 03:00:00 13,4 13,3 35 19 N -
13.07.2020 02:00:00 13,4 13,3 31 17 NNW 0,0
13.07.2020 01:00:00 13,2 13,1 24 13 N -
13.07.2020 00:00:00 13,9 13,2 29 16 N -
12.07.2020 23:00:00 13,9 13,7 26 14 N -
12.07.2020 22:00:00 14,4 14,3 31 17 NNW -
12.07.2020 21:00:00 14,5 14,4 28 15 NNW -
12.07.2020 20:00:00 15,3 14,8 26 14 NNW 0,0
12.07.2020 19:00:00 15,0 14,6 28 15 N -
12.07.2020 18:00:00 15,7 15,0 22 12 N -
12.07.2020 17:00:00 17,3 16,3 21 11 N -
12.07.2020 16:00:00 16,9 16,0 28 15 N -
12.07.2020 15:00:00 16,9 15,9 28 15 N -
12.07.2020 14:00:00 16,3 15,8 26 14 N 0,0
12.07.2020 13:00:00 14,7 14,6 21 11 N -
12.07.2020 12:00:00 13,5 13,4 26 14 N -
12.07.2020 11:00:00 12,5 12,5 22 12 NNW -
12.07.2020 10:00:00 12,8 12,8 16 9 SSW -
12.07.2020 09:00:00 13,0 12,9 24 13 NNW -
12.07.2020 08:00:00 13,2 13,1 21 11 NNW -
12.07.2020 07:00:00 13,4 13,3 18 10 NW -
12.07.2020 06:00:00 13,6 13,5 22 12 NNW -
12.07.2020 05:00:00 14,6 14,5 28 15 NNW -
12.07.2020 04:00:00 15,2 15,1 18 10 N -
12.07.2020 03:00:00 15,0 14,9 11 6 N -
12.07.2020 02:00:00 15,2 15,1 13 7 WNW 0,0
12.07.2020 01:00:00 15,4 15,3 9 5 S -
12.07.2020 00:00:00 15,9 15,8 8 4 W -
11.07.2020 23:00:00 15,5 15,4 8 4 NNE -
11.07.2020 22:00:00 15,6 15,5 13 7 N -
11.07.2020 21:00:00 16,5 16,4 11 6 N -
11.07.2020 20:00:00 17,4 17,3 9 5 N 0,0
11.07.2020 19:00:00 17,9 17,8 8 4 N -
11.07.2020 18:00:00 17,5 17,4 8 4 NNW -
11.07.2020 17:00:00 16,5 16,4 2 1 WNW -
11.07.2020 16:00:00 15,7 15,6 9 5 SSW -
11.07.2020 15:00:00 15,6 15,5 5 3 SSW -
11.07.2020 14:00:00 15,6 15,5 13 7 S 0,0
11.07.2020 13:00:00 15,3 15,2 13 7 S -
11.07.2020 12:00:00 15,5 15,4 18 10 SSW -
11.07.2020 11:00:00 16,0 15,9 13 7 SSW -
11.07.2020 10:00:00 15,6 15,5 18 10 SSW -
11.07.2020 09:00:00 14,3 14,2 18 10 SSW -
11.07.2020 08:00:00 16,2 16,1 18 10 SSW 0,0
11.07.2020 07:00:00 16,0 15,9 18 10 SSW -
11.07.2020 06:00:00 15,7 15,6 15 8 SSW -
11.07.2020 05:00:00 16,2 16,1 11 6 SSW -
11.07.2020 04:00:00 17,5 16,5 4 2 SSW -
11.07.2020 03:00:00 17,5 17,3 5 3 NW -
11.07.2020 02:00:00 16,9 16,8 5 3 SSW 0,0
11.07.2020 01:00:00 16,9 16,8 15 8 NNW -
11.07.2020 00:00:00 17,1 17,0 11 6 N -
10.07.2020 23:00:00 17,6 17,5 11 6 NNW -
10.07.2020 22:00:00 17,8 17,7 5 3 NNW -
10.07.2020 21:00:00 17,4 17,3 4 2 N -
10.07.2020 20:00:00 16,6 16,5 8 4 SW 0,0
10.07.2020 19:00:00 16,8 16,7 8 4 SW -
10.07.2020 18:00:00 17,1 17,0 9 5 SSW -
10.07.2020 17:00:00 17,4 17,3 5 3 SSW -
10.07.2020 16:00:00 16,8 16,7 9 5 SSW -
10.07.2020 15:00:00 18,0 17,9 11 6 S -
10.07.2020 14:00:00 19,1 19,0 13 7 SSW 0,0
10.07.2020 13:00:00 20,1 19,2 9 5 SSW -
10.07.2020 12:00:00 19,4 18,5 9 5 SSW -
10.07.2020 11:00:00 19,8 17,9 4 2 SSW -
10.07.2020 10:00:00 18,9 16,8 4 2 SSW -
10.07.2020 09:00:00 19,0 17,1 4 2 N -
10.07.2020 08:00:00 17,3 14,9 11 6 N 0,0
10.07.2020 07:00:00 16,5 13,5 16 9 NNW -
10.07.2020 06:00:00 16,1 15,6 15 8 N -
10.07.2020 05:00:00 16,5 16,4 15 8 NNW -
10.07.2020 04:00:00 16,7 16,6 11 6 NNW -
10.07.2020 03:00:00 17,0 16,9 8 4 NW -
10.07.2020 02:00:00 17,3 17,2 11 6 NW 0,0
10.07.2020 01:00:00 17,4 17,3 11 6 NW -
10.07.2020 00:00:00 17,5 17,4 5 3 NW -
09.07.2020 23:00:00 17,1 16,1 2 1 SW -
09.07.2020 22:00:00 17,7 16,8 0 0 N -
09.07.2020 21:00:00 18,2 15,6 2 1 E -
09.07.2020 20:00:00 18,5 17,3 0 0 N 0,0
09.07.2020 19:00:00 18,5 17,8 2 1 S -
09.07.2020 18:00:00 19,0 18,0 5 3 S -
09.07.2020 17:00:00 19,5 18,1 8 4 S -
09.07.2020 16:00:00 19,2 17,6 11 6 S -
09.07.2020 15:00:00 20,3 18,4 9 5 S -
09.07.2020 14:00:00 19,7 18,5 9 5 S 0,0
09.07.2020 13:00:00 19,4 18,5 8 4 S -
09.07.2020 12:00:00 18,4 17,2 4 2 E -
09.07.2020 11:00:00 18,1 16,0 4 2 N -
09.07.2020 10:00:00 17,5 16,1 5 3 NNE -
09.07.2020 09:00:00 16,5 15,8 9 5 NNE -
09.07.2020 08:00:00 15,3 14,8 9 5 NNE 0,0
09.07.2020 07:00:00 14,4 13,9 8 4 N -
09.07.2020 06:00:00 13,4 13,2 9 5 N -
09.07.2020 05:00:00 13,5 13,3 11 6 N -
09.07.2020 04:00:00 14,1 13,4 8 4 N -
09.07.2020 03:00:00 15,0 14,0 2 1 NNE -
09.07.2020 02:00:00 14,6 13,7 4 2 W 0,0
09.07.2020 01:00:00 14,8 13,8 5 3 WNW -
09.07.2020 00:00:00 14,8 13,9 8 4 NW -
08.07.2020 23:00:00 14,9 14,4 9 5 NW -
08.07.2020 22:00:00 14,8 14,1 9 5 NW -
08.07.2020 21:00:00 15,1 14,4 9 5 NNW -
08.07.2020 20:00:00 16,4 14,3 5 3 NNW 0,0
08.07.2020 19:00:00 18,1 15,3 4 2 N -
08.07.2020 18:00:00 18,4 15,9 4 2 N -
08.07.2020 17:00:00 17,7 15,6 4 2 W -
08.07.2020 16:00:00 18,0 15,6 5 3 SSW -
08.07.2020 15:00:00 17,8 15,0 4 2 ENE -
08.07.2020 14:00:00 18,3 15,1 5 3 S 0,0
08.07.2020 13:00:00 17,8 14,8 8 4 E -
08.07.2020 12:00:00 16,2 15,0 13 7 N -
08.07.2020 11:00:00 16,6 14,0 15 8 ENE -
08.07.2020 10:00:00 15,1 13,2 18 10 N -
08.07.2020 09:00:00 14,8 12,9 16 9 N -
08.07.2020 08:00:00 12,8 10,8 31 17 N 0,0
08.07.2020 07:00:00 12,0 11,5 31 17 NNW -
08.07.2020 06:00:00 12,3 11,0 31 17 NNW -
08.07.2020 05:00:00 12,4 11,3 39 21 NNW -
08.07.2020 04:00:00 12,9 12,1 37 20 NNW -
08.07.2020 03:00:00 13,3 12,3 29 16 N -
08.07.2020 02:00:00 13,1 12,6 26 14 N 0,0
08.07.2020 01:00:00 13,5 12,8 24 13 N -
08.07.2020 00:00:00 13,2 12,7 21 11 NNW -
07.07.2020 23:00:00 13,4 13,3 21 11 NNW -
07.07.2020 22:00:00 13,7 13,5 24 13 NNW -
07.07.2020 21:00:00 14,4 13,6 26 14 NNW -
07.07.2020 20:00:00 15,4 14,7 21 11 N 0,0
07.07.2020 19:00:00 16,3 14,4 22 12 N -
07.07.2020 18:00:00 16,9 14,5 22 12 N -
07.07.2020 17:00:00 17,3 14,7 22 12 N -
07.07.2020 16:00:00 17,2 15,1 26 14 N -
07.07.2020 15:00:00 17,4 16,0 21 11 N -
07.07.2020 14:00:00 16,4 15,0 34 18 N 0,0
07.07.2020 13:00:00 15,6 14,9 28 15 N -
07.07.2020 12:00:00 15,3 12,6 22 12 NNW -
07.07.2020 11:00:00 14,3 9,3 24 13 W -
07.07.2020 10:00:00 14,0 6,8 21 11 N -
07.07.2020 09:00:00 13,6 5,9 24 13 N -
07.07.2020 08:00:00 12,9 4,8 37 20 N 0,0
07.07.2020 07:00:00 13,2 4,0 39 21 N -
07.07.2020 06:00:00 13,0 3,8 35 19 N -

tt = temperature
td = dewpoint
ff = wind speed
dd = wind direction
rr = precipitation

Next stations